Time;durP1;ratioP1;P1;durP2;ratioP2;P2;SDS_P1;SDS_P2;PMS_P1;PMS_P2;Temp;Humidity;BMP_temperature;BMP_pressure;BME280_temperature;BME280_humidity;BME280_pressure;Samples;Min_cycle;Max_cycle;Signal;HPM_P1;HPM_P2
2023/07/10 00:00:06;;;;;;;4.32;2.15;;;;;;;18.80;91.41;101840.94;4974359;28;20590;-86
2023/07/10 00:02:31;;;;;;;7.13;1.90;;;;;;;18.79;91.09;101842.03;4989470;28;20019;-86
2023/07/10 00:04:56;;;;;;;6.00;2.00;;;;;;;18.79;91.15;101853.03;4974933;28;20037;-86
2023/07/10 00:07:22;;;;;;;5.83;2.13;;;;;;;18.76;90.85;101846.94;4957236;28;20037;-85
2023/07/10 00:09:50;;;;;;;6.38;2.50;;;;;;;18.75;91.30;101847.19;4957204;28;20082;-86
2023/07/10 00:12:20;;;;;;;6.20;2.20;;;;;;;18.74;91.40;101843.59;4972773;28;20138;-86
2023/07/10 00:14:46;;;;;;;7.60;2.15;;;;;;;18.76;91.47;101843.34;4973231;28;20031;-85
2023/07/10 00:17:13;;;;;;;7.15;2.28;;;;;;;18.80;94.13;101850.03;4990697;28;20035;-86
2023/07/10 00:19:41;;;;;;;5.00;2.00;;;;;;;18.76;93.58;101848.84;4993177;28;20490;-86
2023/07/10 00:22:06;;;;;;;6.32;2.00;;;;;;;18.69;94.27;101851.75;4961117;28;20475;-85
2023/07/10 00:24:32;;;;;;;6.78;2.55;;;;;;;18.63;95.97;101871.13;4993103;28;20065;-86
2023/07/10 00:26:57;;;;;;;7.13;2.57;;;;;;;18.52;96.93;101859.94;4976963;28;20082;-86
2023/07/10 00:29:31;;;;;;;10.40;2.30;;;;;;;18.48;99.15;101855.16;4993056;28;20038;-86
2023/07/10 00:31:58;;;;;;;8.50;1.88;;;;;;;18.33;96.59;101847.47;4977068;28;20467;-86
2023/07/10 00:34:25;;;;;;;7.50;2.45;;;;;;;18.32;100.00;101848.53;4977792;28;20035;-86
2023/07/10 00:36:52;;;;;;;4.35;1.92;;;;;;;18.26;99.88;101842.09;4961549;28;20542;-87
2023/07/10 00:39:27;;;;;;;7.03;2.10;;;;;;;18.26;100.00;101846.75;4976565;28;20058;-86
2023/07/10 00:42:02;;;;;;;5.20;2.00;;;;;;;18.24;97.22;101855.25;4977647;28;20086;-86
2023/07/10 00:44:39;;;;;;;6.30;1.90;;;;;;;18.26;98.74;101860.50;4993639;28;20137;-86
2023/07/10 00:47:13;;;;;;;9.20;1.90;;;;;;;18.26;97.19;101857.75;4993044;28;20487;-86
2023/07/10 00:49:46;;;;;;;8.55;2.20;;;;;;;18.30;100.00;101856.19;4976460;28;20090;-86
2023/07/10 00:52:22;;;;;;;6.10;2.13;;;;;;;18.28;98.01;101864.66;4976707;28;20037;-86
2023/07/10 00:54:51;;;;;;;8.73;1.90;;;;;;;18.32;100.00;101856.78;4992898;28;20531;-86
2023/07/10 00:57:25;;;;;;;4.43;1.77;;;;;;;18.25;97.13;101851.44;4976105;28;20023;-86
2023/07/10 00:59:52;;;;;;;6.38;2.05;;;;;;;18.26;97.85;101853.06;4977654;28;20030;-86
2023/07/10 01:02:20;;;;;;;6.47;1.92;;;;;;;18.20;97.63;101849.41;4992180;28;20110;-86
2023/07/10 01:04:52;;;;;;;6.10;2.30;;;;;;;18.20;97.75;101854.03;4976009;28;20034;-86
2023/07/10 01:07:19;;;;;;;6.28;2.00;;;;;;;18.17;96.87;101854.53;4976437;28;20122;-86
2023/07/10 01:09:55;;;;;;;5.07;2.17;;;;;;;18.17;96.52;101860.88;4991910;28;20027;-86
2023/07/10 01:12:24;;;;;;;6.07;2.05;;;;;;;18.16;98.29;101863.84;4992320;28;20050;-86
2023/07/10 01:14:50;;;;;;;3.33;1.83;;;;;;;18.13;97.68;101847.84;4960492;28;20129;-86
2023/07/10 01:17:19;;;;;;;4.87;2.07;;;;;;;18.13;97.89;101856.94;4993006;28;20428;-86
2023/07/10 01:19:46;;;;;;;4.80;1.92;;;;;;;18.10;97.15;101857.44;4976940;28;20031;-87
2023/07/10 01:22:13;;;;;;;5.17;1.90;;;;;;;18.09;97.21;101854.94;4976147;28;20037;-86
2023/07/10 01:24:39;;;;;;;4.72;1.92;;;;;;;18.04;96.47;101855.63;4975865;28;20035;-86
2023/07/10 01:27:07;;;;;;;5.85;2.22;;;;;;;18.03;96.73;101857.53;4992099;28;20085;-86
2023/07/10 01:30:01;;;;;;;6.83;2.40;;;;;;;18.05;96.98;101852.66;4991493;28;20034;-86
2023/07/10 01:32:28;;;;;;;4.90;2.13;;;;;;;18.04;97.22;101836.41;4982663;28;20125;-86
2023/07/10 01:34:57;;;;;;;5.50;1.80;;;;;;;18.06;97.41;101837.84;4975663;28;20062;-86
2023/07/10 01:37:23;;;;;;;4.22;1.73;;;;;;;18.07;97.22;101833.19;4991826;28;20026;-85
2023/07/10 01:39:52;;;;;;;8.73;2.03;;;;;;;18.06;97.55;101840.59;4991700;28;20365;-86
2023/07/10 01:42:17;;;;;;;4.97;1.95;;;;;;;18.03;97.21;101841.06;4976625;28;20031;-86
2023/07/10 01:44:45;;;;;;;6.93;2.00;;;;;;;18.01;97.41;101847.88;4991748;28;20027;-85
2023/07/10 01:47:12;;;;;;;5.93;1.90;;;;;;;18.00;97.68;101859.94;4976759;28;20042;-86
2023/07/10 01:49:48;;;;;;;4.95;2.08;;;;;;;17.96;97.79;101858.75;4991269;28;20058;-86
2023/07/10 01:52:16;;;;;;;4.78;2.13;;;;;;;17.96;98.05;101856.00;4991765;28;20125;-85
2023/07/10 01:54:42;;;;;;;8.20;2.78;;;;;;;17.94;98.09;101861.75;4975300;28;20039;-86
2023/07/10 01:57:11;;;;;;;6.43;2.40;;;;;;;17.94;98.69;101852.66;4991241;28;20069;-86
2023/07/10 01:59:36;;;;;;;5.20;2.22;;;;;;;17.93;98.86;101857.31;4975177;28;20030;-85
2023/07/10 02:02:02;;;;;;;6.15;2.50;;;;;;;17.87;98.87;101850.00;4991374;28;20026;-86
2023/07/10 02:04:28;;;;;;;8.03;2.27;;;;;;;17.81;99.79;101850.97;4974808;28;20067;-86
2023/07/10 02:06:57;;;;;;;7.10;2.63;;;;;;;17.76;100.00;101851.72;4975136;28;20039;-86
2023/07/10 02:09:23;;;;;;;7.10;2.50;;;;;;;17.71;99.41;101851.56;4975000;28;20122;-86
2023/07/10 02:11:50;;;;;;;5.03;2.10;;;;;;;17.70;100.00;101852.63;4975821;28;20543;-86
2023/07/10 02:14:15;;;;;;;7.53;2.60;;;;;;;17.65;100.00;101849.78;4974910;28;20082;-86
2023/07/10 02:16:44;;;;;;;6.45;2.40;;;;;;;17.63;100.00;101857.44;4976424;28;20058;-85
2023/07/10 02:19:10;;;;;;;7.43;2.90;;;;;;;17.61;100.00;101863.16;4975169;28;20475;-86
2023/07/10 02:21:35;;;;;;;7.20;2.50;;;;;;;17.59;100.00;101857.06;4976119;28;20033;-86
2023/07/10 02:24:01;;;;;;;7.15;2.53;;;;;;;17.59;100.00;101864.47;4958700;28;20386;-85
2023/07/10 02:26:29;;;;;;;5.90;2.67;;;;;;;17.56;100.00;101873.19;4958625;28;20037;-86
2023/07/10 02:28:55;;;;;;;4.25;2.20;;;;;;;17.53;100.00;101878.03;4974495;28;20030;-86
2023/07/10 02:31:20;;;;;;;8.27;2.78;;;;;;;17.50;100.00;101883.19;4974579;28;20038;-86
2023/07/10 02:33:46;;;;;;;7.53;3.53;;;;;;;17.44;100.00;101881.41;4974638;28;20043;-86
2023/07/10 02:36:12;;;;;;;6.38;3.33;;;;;;;17.41;100.00;101879.13;4990389;28;20097;-86
2023/07/10 02:38:40;;;;;;;9.13;3.53;;;;;;;17.32;100.00;101875.88;4958072;28;20121;-88
2023/07/10 02:41:08;;;;;;;7.13;4.10;;;;;;;17.27;100.00;101875.75;4990169;28;20090;-85
2023/07/10 02:43:34;;;;;;;7.75;4.85;;;;;;;17.18;100.00;101875.25;4975162;28;20455;-86
2023/07/10 02:46:00;;;;;;;9.82;4.70;;;;;;;17.11;100.00;101877.25;4974604;28;20134;-86
2023/07/10 02:48:25;;;;;;;13.43;5.40;;;;;;;17.07;100.00;101879.63;4975585;28;20382;-86
2023/07/10 02:50:51;;;;;;;12.83;5.20;;;;;;;17.02;100.00;101882.22;4958182;28;20027;-86
2023/07/10 02:53:16;;;;;;;10.70;5.40;;;;;;;16.98;100.00;101867.34;4974178;28;20027;-85
2023/07/10 02:55:42;;;;;;;10.27;5.40;;;;;;;16.95;100.00;101870.56;4958058;28;20031;-86
2023/07/10 02:58:08;;;;;;;8.98;5.18;;;;;;;16.89;100.00;101883.28;4975625;28;20034;-86
2023/07/10 03:00:34;;;;;;;9.83;5.50;;;;;;;16.86;100.00;101888.34;4974364;28;20034;-85
2023/07/10 03:02:59;;;;;;;11.02;6.38;;;;;;;16.75;100.00;101884.50;4975901;28;20030;-86
2023/07/10 03:05:25;;;;;;;11.60;6.43;;;;;;;16.69;100.00;101891.72;4975080;28;20430;-85
2023/07/10 03:07:51;;;;;;;15.63;6.70;;;;;;;16.63;100.00;101893.47;4973955;28;20514;-85
2023/07/10 03:10:18;;;;;;;10.25;7.45;;;;;;;16.60;100.00;101888.47;4974084;28;20379;-85
2023/07/10 03:12:44;;;;;;;15.87;8.10;;;;;;;16.57;100.00;101888.09;4992221;28;20058;-86
2023/07/10 03:15:10;;;;;;;12.27;7.82;;;;;;;16.56;100.00;101891.91;4976961;28;20046;-85
2023/07/10 03:17:36;;;;;;;16.70;7.55;;;;;;;16.56;100.00;101900.13;4976924;28;20112;-86
2023/07/10 03:20:02;;;;;;;17.83;8.10;;;;;;;16.53;100.00;101900.59;4993447;28;20463;-86
2023/07/10 03:22:28;;;;;;;13.80;7.40;;;;;;;16.49;100.00;101905.69;4960961;28;20043;-86
2023/07/10 03:24:55;;;;;;;15.57;7.87;;;;;;;16.45;100.00;101908.03;4976675;28;20049;-86
2023/07/10 03:27:20;;;;;;;12.02;7.70;;;;;;;16.40;100.00;101916.13;4993160;28;20034;-85
2023/07/10 03:29:46;;;;;;;13.02;7.55;;;;;;;16.40;100.00;101920.75;4960952;28;20049;-86
2023/07/10 03:32:11;;;;;;;12.77;7.53;;;;;;;16.38;100.00;101914.66;4944801;28;20489;-85
2023/07/10 03:34:39;;;;;;;12.13;7.37;;;;;;;16.34;100.00;101905.22;4992665;28;20031;-86
2023/07/10 03:37:05;;;;;;;12.18;6.88;;;;;;;16.31;100.00;101912.84;4994046;28;20034;-86
2023/07/10 03:39:31;;;;;;;13.43;7.50;;;;;;;16.26;100.00;101909.94;4993171;28;20026;-86
2023/07/10 03:41:56;;;;;;;14.73;7.95;;;;;;;16.26;100.00;101909.09;4993017;28;20066;-86
2023/07/10 03:44:22;;;;;;;11.90;7.43;;;;;;;16.23;100.00;101906.84;4994258;28;20475;-86
2023/07/10 03:46:47;;;;;;;10.47;7.03;;;;;;;16.23;100.00;101909.56;4977135;28;20030;-85
2023/07/10 03:49:13;;;;;;;11.63;6.83;;;;;;;16.21;100.00;101918.00;4960715;28;20038;-86
2023/07/10 03:51:38;;;;;;;11.85;7.20;;;;;;;16.19;100.00;101919.28;4976449;28;20501;-86
2023/07/10 03:54:05;;;;;;;13.80;7.23;;;;;;;16.20;100.00;101920.97;4996454;28;20124;-85
2023/07/10 03:56:31;;;;;;;14.43;7.55;;;;;;;16.18;100.00;101926.69;4996922;28;20386;-85
2023/07/10 03:58:56;;;;;;;14.50;7.90;;;;;;;16.14;100.00;101922.72;4964912;28;20042;-85
2023/07/10 04:01:22;;;;;;;13.80;7.10;;;;;;;16.12;100.00;101928.41;4997830;28;20099;-85
2023/07/10 04:03:47;;;;;;;10.23;7.10;;;;;;;16.12;100.00;101935.78;4997984;28;20034;-86
2023/07/10 04:06:15;;;;;;;11.07;7.33;;;;;;;16.14;100.00;101944.63;4980536;28;20034;-86
2023/07/10 04:08:42;;;;;;;11.73;7.53;;;;;;;16.13;100.00;101945.66;4980691;28;20034;-85
2023/07/10 04:11:24;;;;;;;15.03;7.77;;;;;;;16.11;100.00;101934.94;5091182;27;20401;-87
2023/07/10 04:13:52;;;;;;;11.75;7.47;;;;;;;16.14;100.00;101945.44;5090967;28;20058;-87
2023/07/10 04:16:20;;;;;;;13.30;8.48;;;;;;;16.14;100.00;101947.34;5089860;28;20522;-87
2023/07/10 04:18:47;;;;;;;15.30;9.20;;;;;;;16.18;100.00;101955.94;5091013;28;20028;-87
2023/07/10 04:21:21;;;;;;;15.55;9.95;;;;;;;16.20;100.00;101945.63;5090785;28;20024;-87
2023/07/10 04:23:47;;;;;;;14.83;9.97;;;;;;;16.24;100.00;101944.06;5090108;28;20060;-87
2023/07/10 04:26:17;;;;;;;13.57;9.38;;;;;;;16.31;100.00;101950.31;5090960;28;20047;-87
2023/07/10 04:28:48;;;;;;;15.13;9.32;;;;;;;16.38;100.00;101945.63;5090423;28;20070;-87
2023/07/10 04:31:15;;;;;;;19.27;10.75;;;;;;;16.46;100.00;101941.72;5089481;28;20396;-87
2023/07/10 04:33:40;;;;;;;18.40;10.30;;;;;;;16.53;100.00;101938.94;5090489;28;20032;-87
2023/07/10 04:36:05;;;;;;;17.33;10.90;;;;;;;16.52;100.00;101935.38;5089548;28;20028;-87
2023/07/10 04:38:31;;;;;;;14.93;10.27;;;;;;;16.54;100.00;101937.88;5072597;28;20035;-87
2023/07/10 04:40:59;;;;;;;14.63;10.67;;;;;;;16.52;100.00;101934.50;5071747;28;20040;-87
2023/07/10 04:43:26;;;;;;;18.27;10.75;;;;;;;16.52;100.00;101940.00;5089134;28;20032;-87
2023/07/10 04:45:56;;;;;;;18.88;10.68;;;;;;;16.54;100.00;101944.19;5089228;28;20550;-87
2023/07/10 04:48:23;;;;;;;18.80;11.35;;;;;;;16.52;100.00;101943.59;5089116;28;20032;-87
2023/07/10 04:50:50;;;;;;;19.00;10.93;;;;;;;16.51;100.00;101939.16;5072037;28;20036;-87
2023/07/10 04:53:17;;;;;;;18.73;10.35;;;;;;;16.48;100.00;101945.09;5090427;28;20103;-87
2023/07/10 04:55:43;;;;;;;20.35;10.93;;;;;;;16.45;100.00;101954.59;5072250;28;20062;-87
2023/07/10 04:58:10;;;;;;;16.40;10.25;;;;;;;16.43;100.00;101954.00;5089351;28;20032;-87
2023/07/10 05:00:35;;;;;;;14.82;10.18;;;;;;;16.49;100.00;101963.22;5088862;28;20472;-87
2023/07/10 05:03:02;;;;;;;18.10;10.70;;;;;;;16.52;100.00;101968.25;5055417;28;20032;-87
2023/07/10 05:05:27;;;;;;;19.13;10.07;;;;;;;16.54;100.00;101954.31;5089041;28;20109;-86
2023/07/10 05:07:53;;;;;;;19.30;10.23;;;;;;;16.57;100.00;101959.34;5055403;28;20048;-87
2023/07/10 05:10:18;;;;;;;21.47;10.83;;;;;;;16.60;100.00;101959.69;5070917;28;20060;-87
2023/07/10 05:12:43;;;;;;;15.10;10.37;;;;;;;16.64;100.00;101968.31;5089094;28;20036;-86
2023/07/10 05:15:12;;;;;;;14.93;9.97;;;;;;;16.63;100.00;101974.84;5089907;28;20032;-87
2023/07/10 05:17:38;;;;;;;18.45;10.30;;;;;;;16.64;100.00;101962.84;5089740;28;20036;-87
2023/07/10 05:20:04;;;;;;;14.80;10.13;;;;;;;16.63;100.00;101972.09;5089712;28;20438;-87
2023/07/10 05:22:29;;;;;;;17.65;10.50;;;;;;;16.65;100.00;101967.22;5076583;28;20037;-87
2023/07/10 05:24:54;;;;;;;21.17;9.43;;;;;;;16.68;100.00;101966.75;5058221;28;20124;-87
2023/07/10 05:27:20;;;;;;;18.10;9.83;;;;;;;16.72;100.00;101972.66;5074955;28;20491;-87
2023/07/10 05:29:45;;;;;;;12.33;8.67;;;;;;;16.78;100.00;101971.72;5075051;28;20329;-94
2023/07/10 05:32:11;;;;;;;12.80;8.43;;;;;;;16.90;100.00;101978.13;5058632;28;20032;-90
2023/07/10 05:34:36;;;;;;;12.33;8.37;;;;;;;17.00;100.00;101978.41;5058703;28;20357;-93
2023/07/10 05:37:05;;;;;;;13.33;8.10;;;;;;;17.12;100.00;101980.38;5058725;28;20032;-90
2023/07/10 05:39:35;;;;;;;14.25;8.05;;;;;;;17.16;100.00;101976.13;5075119;28;20029;-94
2023/07/10 05:42:06;;;;;;;10.48;7.43;;;;;;;17.20;100.00;101980.06;5059372;28;20082;-91
2023/07/10 05:44:34;;;;;;;13.98;7.65;;;;;;;17.25;100.00;101968.41;5076000;28;20055;-92
2023/07/10 05:47:00;;;;;;;16.77;7.05;;;;;;;17.29;100.00;101973.19;5075874;28;20024;-92
2023/07/10 05:49:28;;;;;;;12.73;6.90;;;;;;;17.35;100.00;101969.50;5075157;28;20029;-94
2023/07/10 05:51:53;;;;;;;12.40;7.00;;;;;;;17.42;100.00;101965.81;5058863;28;20105;-93
2023/07/10 05:54:20;;;;;;;9.67;6.17;;;;;;;17.46;100.00;101965.09;5075210;28;20158;-96
2023/07/10 05:56:47;;;;;;;10.82;6.82;;;;;;;17.54;100.00;101973.03;5075843;28;20043;-91
2023/07/10 05:59:13;;;;;;;12.25;6.85;;;;;;;17.59;100.00;101971.47;5074795;28;20036;-91
2023/07/10 06:01:41;;;;;;;9.88;5.65;;;;;;;17.61;100.00;101969.31;5058700;28;20051;-92
2023/07/10 06:04:07;;;;;;;10.33;5.57;;;;;;;17.65;100.00;101976.03;5075055;28;20392;-91
2023/07/10 06:06:32;;;;;;;10.63;6.07;;;;;;;17.63;100.00;101973.50;5058051;28;20035;-88
2023/07/10 06:08:58;;;;;;;8.70;5.30;;;;;;;17.65;100.00;101979.59;5073753;28;20432;-87
2023/07/10 06:11:26;;;;;;;11.23;6.00;;;;;;;17.62;100.00;101971.84;5075803;28;20048;-89
2023/07/10 06:13:51;;;;;;;9.15;5.70;;;;;;;17.66;100.00;101974.97;5075401;28;20464;-88
2023/07/10 06:16:17;;;;;;;8.97;5.10;;;;;;;17.68;100.00;101981.03;5075318;28;20024;-88
2023/07/10 06:18:42;;;;;;;11.68;5.07;;;;;;;17.69;100.00;101978.06;5073670;28;20046;-88
2023/07/10 06:21:10;;;;;;;17.37;5.20;;;;;;;17.76;100.00;101982.59;5074191;28;20487;-88
2023/07/10 06:23:36;;;;;;;10.65;5.13;;;;;;;17.84;100.00;101988.56;5074028;28;20028;-90
2023/07/10 06:26:02;;;;;;;11.88;5.68;;;;;;;17.87;100.00;101984.53;5076191;28;20098;-94
2023/07/10 06:28:32;;;;;;;13.23;5.27;;;;;;;17.89;100.00;101990.63;5074838;28;20052;-90
2023/07/10 06:30:59;;;;;;;16.92;5.57;;;;;;;17.94;100.00;101989.94;5075103;28;20025;-90
2023/07/10 06:33:33;;;;;;;11.35;5.45;;;;;;;17.95;100.00;101991.59;5073063;28;20047;-88
2023/07/10 06:35:59;;;;;;;10.55;5.13;;;;;;;17.98;100.00;101997.47;5056958;28;20135;-88
2023/07/10 06:38:25;;;;;;;14.05;5.40;;;;;;;18.03;100.00;101999.50;5073544;28;20072;-89
2023/07/10 06:40:51;;;;;;;15.00;5.10;;;;;;;18.12;100.00;102002.75;5073173;28;20063;-89
2023/07/10 06:43:17;;;;;;;46.10;7.53;;;;;;;18.15;98.33;101999.50;5074673;28;20063;-87
2023/07/10 06:45:47;;;;;;;13.15;4.32;;;;;;;18.21;97.05;102001.31;5074556;28;20029;-89
2023/07/10 06:48:16;;;;;;;8.53;3.50;;;;;;;18.23;96.38;102000.00;5073646;28;20079;-89
2023/07/10 06:50:46;;;;;;;12.63;4.10;;;;;;;18.26;93.15;101993.16;5073005;28;20107;-89
2023/07/10 06:53:14;;;;;;;18.55;4.07;;;;;;;18.32;93.29;101999.63;5073547;28;20028;-90
2023/07/10 06:55:40;;;;;;;8.75;3.58;;;;;;;18.34;92.61;102009.31;5073196;28;20049;-89
2023/07/10 06:58:08;;;;;;;12.65;3.40;;;;;;;18.36;91.63;102001.66;5056465;28;20039;-90
2023/07/10 07:00:34;;;;;;;8.70;3.30;;;;;;;18.43;93.02;102006.22;5073148;28;20024;-90
2023/07/10 07:02:59;;;;;;;11.30;3.22;;;;;;;18.50;92.67;102001.38;5073311;28;20028;-89
2023/07/10 07:05:24;;;;;;;7.70;2.87;;;;;;;18.52;89.40;102002.84;5073195;28;20032;-90
2023/07/10 07:07:53;;;;;;;8.60;2.97;;;;;;;18.57;90.32;102002.97;5073157;28;20035;-89
2023/07/10 07:10:18;;;;;;;9.43;3.72;;;;;;;18.61;88.96;102000.56;5072060;28;20106;-88
2023/07/10 07:12:44;;;;;;;12.40;3.43;;;;;;;18.65;88.41;101995.44;5072746;28;20467;-89
2023/07/10 07:15:11;;;;;;;9.73;3.40;;;;;;;18.70;87.19;102007.34;5073334;28;20036;-93
2023/07/10 07:17:39;;;;;;;9.80;3.60;;;;;;;18.76;87.26;102002.78;5073543;28;20031;-91
2023/07/10 07:20:07;;;;;;;13.30;3.88;;;;;;;18.80;86.73;102014.97;5074263;28;20060;-91
2023/07/10 07:22:32;;;;;;;9.32;3.63;;;;;;;18.84;86.74;102009.81;5073725;28;20037;-91
2023/07/10 07:25:00;;;;;;;17.83;4.37;;;;;;;18.87;87.93;102010.22;5073353;28;20033;-91
2023/07/10 07:27:25;;;;;;;8.90;3.95;;;;;;;18.90;86.81;102020.72;5074303;28;20020;-91
2023/07/10 07:29:52;;;;;;;7.83;3.67;;;;;;;18.95;86.78;102019.16;5074488;28;20027;-91
2023/07/10 07:32:21;;;;;;;7.50;4.20;;;;;;;18.95;88.36;102024.66;5073428;28;20337;-93
2023/07/10 07:34:47;;;;;;;12.18;4.35;;;;;;;18.98;89.90;102025.00;5040579;28;20042;-93
2023/07/10 07:37:16;;;;;;;7.88;3.22;;;;;;;18.99;86.69;102029.44;5073195;28;20032;-91
2023/07/10 07:39:41;;;;;;;13.40;4.32;;;;;;;18.98;87.16;102025.00;5074530;28;20036;-92
2023/07/10 07:42:09;;;;;;;11.63;3.50;;;;;;;19.01;87.27;102026.44;5073636;28;20036;-92
2023/07/10 07:44:35;;;;;;;10.23;4.43;;;;;;;19.07;86.91;102018.06;5074023;28;20025;-89
2023/07/10 07:47:00;;;;;;;8.57;3.70;;;;;;;19.10;87.33;102024.97;5055753;28;20450;-90
2023/07/10 07:49:29;;;;;;;10.53;4.10;;;;;;;19.13;86.71;102029.16;5073659;28;20064;-92
2023/07/10 07:51:54;;;;;;;15.65;3.80;;;;;;;19.18;84.83;102015.53;5072789;28;20131;-92
2023/07/10 07:54:22;;;;;;;9.20;3.77;;;;;;;19.18;84.19;102024.59;5056605;28;20120;-89
2023/07/10 07:56:47;;;;;;;11.23;3.50;;;;;;;19.22;83.60;102025.78;5056076;28;20029;-91
2023/07/10 07:59:13;;;;;;;9.07;3.13;;;;;;;19.28;82.04;102016.53;5039246;28;20036;-90
2023/07/10 08:01:44;;;;;;;7.60;2.92;;;;;;;19.33;81.87;102013.06;5073974;28;20054;-92
2023/07/10 08:04:12;;;;;;;12.45;3.38;;;;;;;19.39;82.98;102002.97;5072784;28;20029;-92
2023/07/10 08:06:43;;;;;;;7.70;2.80;;;;;;;19.44;81.02;102009.41;5073847;28;20056;-92
2023/07/10 08:09:09;;;;;;;7.75;2.60;;;;;;;19.54;81.58;102014.25;5073558;28;20075;-92
2023/07/10 08:11:34;;;;;;;8.73;2.33;;;;;;;19.61;80.04;101997.59;5074307;28;20044;-92
2023/07/10 08:14:00;;;;;;;8.63;2.53;;;;;;;19.71;80.69;102000.53;5074168;28;20503;-91
2023/07/10 08:16:26;;;;;;;10.70;2.80;;;;;;;19.79;78.65;102007.56;5073090;28;20040;-93
2023/07/10 08:18:51;;;;;;;11.63;2.75;;;;;;;19.91;79.21;102004.72;5073973;28;20024;-92
2023/07/10 08:21:18;;;;;;;6.93;2.03;;;;;;;20.02;78.72;102003.81;5072779;28;20020;-92
2023/07/10 08:23:44;;;;;;;10.32;2.15;;;;;;;20.08;75.64;102007.50;5056153;28;20021;-92
2023/07/10 08:26:09;;;;;;;8.53;2.03;;;;;;;20.14;74.03;102010.06;5073851;28;20078;-92
2023/07/10 08:28:35;;;;;;;9.63;2.67;;;;;;;20.18;74.74;102006.81;5073919;28;20126;-92
2023/07/10 08:31:01;;;;;;;10.52;2.28;;;;;;;20.25;75.84;102004.72;5056114;28;20063;-91
2023/07/10 08:33:27;;;;;;;9.98;2.42;;;;;;;20.32;72.45;102014.47;5073693;28;20024;-92
2023/07/10 08:35:57;;;;;;;9.60;2.03;;;;;;;20.41;72.37;102009.34;5056223;28;20101;-92
2023/07/10 08:38:22;;;;;;;10.23;2.50;;;;;;;20.49;73.38;102002.56;5074817;28;20028;-92
2023/07/10 08:40:51;;;;;;;10.20;2.53;;;;;;;20.56;74.42;102010.66;5073127;28;20025;-92
2023/07/10 08:43:25;;;;;;;11.07;2.77;;;;;;;20.60;73.54;102011.84;5073420;28;20357;-91
2023/07/10 08:45:50;;;;;;;11.25;2.65;;;;;;;20.61;72.50;102006.06;5072780;28;20036;-92
2023/07/10 08:48:32;;;;;;;8.10;1.88;;;;;;;20.67;70.00;102009.75;5055493;28;20045;-92
2023/07/10 08:51:05;;;;;;;8.18;2.30;;;;;;;20.72;69.36;102014.50;5073738;28;20032;-90
2023/07/10 08:53:34;;;;;;;6.37;2.20;;;;;;;20.75;68.89;101995.50;5072598;28;20043;-93
2023/07/10 08:56:21;;;;;;;7.60;2.10;;;;;;;20.89;70.03;101995.13;5073567;28;20021;-92
2023/07/10 08:58:46;;;;;;;13.55;2.38;;;;;;;20.93;64.99;102002.63;5076134;28;20119;-92
2023/07/10 09:01:36;;;;;;;11.60;1.90;;;;;;;21.03;67.38;102005.50;5077460;28;20480;-92
2023/07/10 09:04:04;;;;;;;5.78;1.85;;;;;;;21.13;67.44;102001.22;5076300;28;20032;-92
2023/07/10 09:06:37;;;;;;;7.78;1.92;;;;;;;21.24;68.09;102013.19;5076087;28;20024;-92
2023/07/10 09:09:09;;;;;;;6.65;2.10;;;;;;;21.29;67.03;102013.22;5077867;28;20107;-92
2023/07/10 09:11:35;;;;;;;9.10;2.10;;;;;;;21.33;67.23;102015.25;5076730;28;20082;-92
2023/07/10 09:14:36;;;;;;;8.98;2.78;;;;;;;21.42;68.52;102012.84;5077046;28;20170;-93
2023/07/10 09:17:11;;;;;;;7.38;2.30;;;;;;;21.45;66.88;102009.56;5078849;28;20021;-92
2023/07/10 09:19:39;;;;;;;7.80;2.40;;;;;;;21.52;66.50;102006.59;5077048;28;20555;-92
2023/07/10 09:22:10;;;;;;;6.10;2.13;;;;;;;21.61;67.66;101999.50;5076877;28;20033;-93
2023/07/10 09:24:35;;;;;;;6.00;2.00;;;;;;;21.75;66.85;102004.59;5060977;28;20072;-92
2023/07/10 09:27:04;;;;;;;9.98;2.30;;;;;;;21.86;65.91;102001.66;5075918;28;20115;-94
2023/07/10 09:29:35;;;;;;;5.90;2.13;;;;;;;21.91;65.55;102006.41;5075477;28;20495;-93
2023/07/10 09:32:18;;;;;;;8.65;2.10;;;;;;;22.10;66.22;102006.84;5076937;28;20032;-93
2023/07/10 09:34:51;;;;;;;7.65;2.20;;;;;;;22.27;64.01;102009.44;5076139;28;20461;-93
2023/07/10 09:37:19;;;;;;;7.00;2.47;;;;;;;22.37;64.04;102005.94;5075395;28;20390;-92
2023/07/10 09:39:45;;;;;;;10.82;2.60;;;;;;;22.54;64.50;102006.59;5074884;28;20077;-92
2023/07/10 09:42:21;;;;;;;4.30;2.07;;;;;;;22.74;62.07;102007.78;5075391;28;20021;-92
2023/07/10 09:44:54;;;;;;;6.72;2.22;;;;;;;22.90;61.22;102005.94;5075641;28;20024;-92
2023/07/10 09:47:29;;;;;;;6.28;2.22;;;;;;;23.18;61.51;102012.97;5076024;28;20102;-93
2023/07/10 09:49:59;;;;;;;8.45;2.00;;;;;;;23.33;58.13;102003.88;5059753;28;20503;-91
2023/07/10 09:52:30;;;;;;;8.70;2.17;;;;;;;23.51;57.09;102007.22;5075456;28;20090;-93
2023/07/10 09:55:03;;;;;;;7.43;2.00;;;;;;;23.45;56.66;102009.97;5076253;28;20051;-92
2023/07/10 09:57:49;;;;;;;5.55;1.80;;;;;;;23.36;56.03;102016.34;5075151;28;20032;-92
2023/07/10 10:00:19;;;;;;;6.47;1.90;;;;;;;23.33;56.40;102023.25;5074986;28;20028;-92
2023/07/10 10:02:55;;;;;;;7.40;1.80;;;;;;;23.32;55.56;102020.75;5058969;28;20036;-92
2023/07/10 10:05:21;;;;;;;6.60;1.80;;;;;;;23.25;55.72;102012.69;5076282;28;20082;-93
2023/07/10 10:07:50;;;;;;;8.87;1.83;;;;;;;23.29;55.61;102008.28;5074842;28;20028;-91
2023/07/10 10:10:38;;;;;;;5.85;1.73;;;;;;;23.42;56.85;101998.63;5074461;28;20020;-92
2023/07/10 10:13:23;;;;;;;5.38;1.95;;;;;;;23.74;56.98;102005.84;5075808;28;20524;-92
2023/07/10 10:16:03;;;;;;;3.97;1.63;;;;;;;23.99;52.79;102011.41;5075249;28;20082;-92
2023/07/10 10:18:31;;;;;;;5.23;1.70;;;;;;;24.18;53.25;102002.50;5075197;28;20035;-92
2023/07/10 10:21:00;;;;;;;6.72;1.80;;;;;;;24.38;54.40;101996.09;5075043;28;20049;-93
2023/07/10 10:23:33;;;;;;;9.10;1.90;;;;;;;24.45;51.85;102004.97;5074392;28;20021;-92
2023/07/10 10:26:22;;;;;;;7.00;1.88;;;;;;;24.59;52.25;101996.91;5059285;28;20433;-91
2023/07/10 10:29:11;;;;;;;5.25;2.15;;;;;;;24.73;52.74;102002.69;5075055;28;20024;-92
2023/07/10 10:32:03;;;;;;;8.27;2.20;;;;;;;24.74;51.59;101996.00;5074547;28;20421;-92
2023/07/10 10:35:00;;;;;;;5.28;1.77;;;;;;;24.69;52.69;102004.38;5043994;28;20063;-93
2023/07/10 10:38:00;;;;;;;7.03;1.65;;;;;;;24.94;51.73;102002.59;5075739;28;20059;-93
2023/07/10 10:40:44;;;;;;;5.72;1.88;;;;;;;25.27;49.61;101991.84;5074133;28;20028;-93
2023/07/10 10:43:19;;;;;;;9.40;2.10;;;;;;;25.58;50.00;101991.66;5074574;28;20487;-93
2023/07/10 10:45:54;;;;;;;7.00;1.77;;;;;;;25.34;50.26;101995.19;5074082;28;20032;-93
2023/07/10 10:48:23;;;;;;;8.57;2.10;;;;;;;25.32;49.24;101997.38;5075659;28;20112;-93
2023/07/10 10:51:02;;;;;;;4.35;1.80;;;;;;;25.31;48.84;102004.91;5073959;28;20046;-92
2023/07/10 10:53:39;;;;;;;7.38;2.10;;;;;;;25.04;49.54;101997.00;5075182;28;20545;-93
2023/07/10 10:56:24;;;;;;;9.10;2.03;;;;;;;25.30;49.44;102003.25;5074634;28;20032;-92
2023/07/10 10:59:19;;;;;;;4.83;1.67;;;;;;;25.61;48.43;102000.25;5073858;28;20031;-92
2023/07/10 11:01:56;;;;;;;4.90;1.92;;;;;;;26.12;47.34;102000.94;5074009;28;20033;-92
2023/07/10 11:04:28;;;;;;;7.45;2.20;;;;;;;26.44;45.77;102003.97;5074147;28;20468;-92
2023/07/10 11:07:09;;;;;;;7.50;2.30;;;;;;;26.34;45.90;102012.41;5075119;28;20112;-93
2023/07/10 11:10:06;;;;;;;;;;;;;;;;;;;;;
2023/07/10 11:12:35;;;;;;;7.77;2.23;;;;;;;26.72;46.32;102006.16;5075420;28;20070;-93
2023/07/10 11:15:31;;;;;;;6.95;2.00;;;;;;;26.78;45.74;102007.75;5073975;28;20094;-93
2023/07/10 11:17:58;;;;;;;9.60;2.17;;;;;;;26.29;45.84;102003.28;5073612;28;20382;-93
2023/07/10 11:20:26;;;;;;;8.05;2.10;;;;;;;26.30;45.32;102003.00;5073093;28;20082;-92
2023/07/10 11:22:57;;;;;;;8.15;1.73;;;;;;;26.54;45.39;101986.28;5074490;28;20473;-93
2023/07/10 11:25:43;;;;;;;9.17;1.70;;;;;;;27.83;43.36;101990.91;5074139;28;20037;-88
2023/07/10 11:28:21;;;;;;;8.00;2.03;;;;;;;29.86;40.01;101981.59;5072185;28;20032;-88